createdAt,value
2023-06-21T00:00:41.656Z,100166.81
2023-06-21T00:03:10.692Z,100173.22
2023-06-21T00:05:39.378Z,100220.72
2023-06-21T00:08:08.836Z,100219.13
2023-06-21T00:10:35.568Z,100212.72
2023-06-21T00:13:02.294Z,100217.09
2023-06-21T00:15:29.014Z,100212.06
2023-06-21T00:17:55.797Z,100224.50
2023-06-21T00:20:23.020Z,100219.13
2023-06-21T00:22:56.983Z,100228.53
2023-06-21T00:25:27.968Z,100234.91
2023-06-21T00:27:54.674Z,100236.22
2023-06-21T00:30:21.363Z,100245.59
2023-06-21T00:32:50.866Z,100256.41
2023-06-21T00:35:17.475Z,100254.69
2023-06-21T00:37:45.718Z,100265.03
2023-06-21T00:40:15.494Z,100273.34
2023-06-21T00:42:44.588Z,100270.75
2023-06-21T00:45:16.863Z,100272.72
2023-06-21T00:47:44.288Z,100268.13
2023-06-21T00:50:11.110Z,100266.75
2023-06-21T00:52:40.985Z,100266.28
2023-06-21T00:55:09.659Z,100262.53
2023-06-21T00:57:37.369Z,100263.69
2023-06-21T01:00:07.252Z,100252.88
2023-06-21T01:02:35.428Z,100254.78
2023-06-21T01:05:04.613Z,100248.84
2023-06-21T01:07:40.216Z,100250.31
2023-06-21T01:10:15.502Z,100239.59
2023-06-21T01:13:01.585Z,100228.88
2023-06-21T01:15:33.282Z,100218.69
2023-06-21T01:18:03.963Z,100227.66
2023-06-21T01:20:32.114Z,100223.03
2023-06-21T01:23:04.760Z,100219.97
2023-06-21T01:25:35.378Z,100221.56
2023-06-21T01:28:21.693Z,100222.66
2023-06-21T01:30:50.048Z,100216.97
2023-06-21T01:33:20.078Z,100222.84
2023-06-21T01:35:46.951Z,100222.03
2023-06-21T01:38:13.544Z,100210.75
2023-06-21T01:40:40.278Z,100206.72
2023-06-21T01:43:07.286Z,100214.25
2023-06-21T01:45:34.073Z,100206.63
2023-06-21T01:48:01.469Z,100204.88
2023-06-21T01:50:30.850Z,100208.38
2023-06-21T01:52:57.691Z,100213.75
2023-06-21T01:55:27.160Z,100214.75
2023-06-21T01:57:53.935Z,100215.31
2023-06-21T02:00:23.123Z,100218.66
2023-06-21T02:02:56.948Z,100209.47
2023-06-21T02:05:24.887Z,100204.31
2023-06-21T02:07:51.795Z,100200.91
2023-06-21T02:10:22.537Z,100193.09
2023-06-21T02:12:49.842Z,100179.91
2023-06-21T02:15:18.955Z,100192.72
2023-06-21T02:17:52.638Z,100205.00
2023-06-21T02:20:23.169Z,100204.69
2023-06-21T02:22:49.922Z,100195.59
2023-06-21T02:25:17.524Z,100209.00
2023-06-21T02:27:44.189Z,100225.75
2023-06-21T02:30:12.371Z,100236.56
2023-06-21T02:32:39.309Z,100230.88
2023-06-21T02:35:06.486Z,100236.81
2023-06-21T02:37:33.479Z,100236.28
2023-06-21T02:40:00.350Z,100241.41
2023-06-21T02:42:28.749Z,100231.75
2023-06-21T02:44:55.494Z,100238.84
2023-06-21T02:47:25.166Z,100243.72
2023-06-21T02:49:53.105Z,100257.91
2023-06-21T02:52:22.235Z,100254.19
2023-06-21T02:54:48.897Z,100263.84
2023-06-21T02:57:15.515Z,100263.97
2023-06-21T02:59:45.794Z,100257.56
2023-06-21T03:02:12.792Z,100275.13
2023-06-21T03:04:39.396Z,100272.00
2023-06-21T03:07:06.325Z,100275.69
2023-06-21T03:09:33.723Z,100278.28
2023-06-21T03:12:03.695Z,100281.41
2023-06-21T03:14:30.676Z,100282.69
2023-06-21T03:17:00.496Z,100291.06
2023-06-21T03:19:29.610Z,100289.63
2023-06-21T03:21:59.280Z,100299.84
2023-06-21T03:24:28.040Z,100301.00
2023-06-21T03:26:55.217Z,100303.25
2023-06-21T03:29:21.874Z,100305.53
2023-06-21T03:31:49.254Z,100310.91
2023-06-21T03:34:18.331Z,100330.06
2023-06-21T03:36:50.316Z,100321.13
2023-06-21T03:39:17.019Z,100327.34
2023-06-21T03:41:50.975Z,100320.53
2023-06-21T03:44:17.909Z,100331.31
2023-06-21T03:46:44.734Z,100323.38
2023-06-21T03:49:11.457Z,100320.81
2023-06-21T03:51:38.162Z,100330.63
2023-06-21T03:54:05.103Z,100342.66
2023-06-21T03:56:31.744Z,100351.41
2023-06-21T03:59:02.254Z,100358.78
2023-06-21T04:01:28.934Z,100362.75
2023-06-21T04:03:56.765Z,100369.25
2023-06-21T04:06:23.678Z,100375.66
2023-06-21T04:08:52.741Z,100367.72
2023-06-21T04:11:19.348Z,100366.44
2023-06-21T04:13:45.974Z,100369.53
2023-06-21T04:16:12.691Z,100381.59
2023-06-21T04:18:39.562Z,100380.75
2023-06-21T04:21:09.457Z,100387.16
2023-06-21T04:23:36.848Z,100393.25
2023-06-21T04:26:07.149Z,100387.59
2023-06-21T04:28:37.326Z,100398.06
2023-06-21T04:31:04.029Z,100397.72
2023-06-21T04:33:33.007Z,100406.97
2023-06-21T04:35:59.687Z,100410.09
2023-06-21T04:38:26.263Z,100418.53
2023-06-21T04:40:55.784Z,100413.97
2023-06-21T04:43:28.723Z,100405.34
2023-06-21T04:45:55.721Z,100406.19
2023-06-21T04:48:25.737Z,100420.94
2023-06-21T04:50:52.659Z,100424.44
2023-06-21T04:53:19.251Z,100415.56
2023-06-21T04:55:45.893Z,100416.44
2023-06-21T04:58:13.792Z,100418.69
2023-06-21T05:00:40.579Z,100419.00
2023-06-21T05:03:07.371Z,100430.53
2023-06-21T05:05:35.013Z,100448.00
2023-06-21T05:08:01.935Z,100451.13
2023-06-21T05:10:30.844Z,100456.50
2023-06-21T05:13:01.242Z,100454.69
2023-06-21T05:15:27.858Z,100461.19
2023-06-21T05:18:02.026Z,100450.75
2023-06-21T05:20:28.913Z,100460.44
2023-06-21T05:22:55.855Z,100468.09
2023-06-21T05:25:33.184Z,100476.16
2023-06-21T05:27:59.855Z,100468.09
2023-06-21T05:30:26.704Z,100468.41
2023-06-21T05:32:53.615Z,100468.94
2023-06-21T05:35:22.370Z,100465.56
2023-06-21T05:37:49.028Z,100472.25
2023-06-21T05:40:16.603Z,100471.97
2023-06-21T05:42:43.281Z,100478.88
2023-06-21T05:45:10.272Z,100486.53
2023-06-21T05:47:37.345Z,100475.19
2023-06-21T05:50:04.486Z,100480.00
2023-06-21T05:52:31.473Z,100484.44
2023-06-21T05:54:58.136Z,100476.84
2023-06-21T05:57:30.883Z,100471.19
2023-06-21T06:00:00.757Z,100474.94
2023-06-21T06:02:31.752Z,100475.78
2023-06-21T06:04:58.487Z,100474.59
2023-06-21T06:07:27.053Z,100483.28
2023-06-21T06:09:54.042Z,100486.84
2023-06-21T06:12:22.705Z,100491.63
2023-06-21T06:14:49.564Z,100486.00
2023-06-21T06:17:17.862Z,100488.31
2023-06-21T06:19:44.587Z,100492.25
2023-06-21T06:22:13.991Z,100501.34
2023-06-21T06:24:40.710Z,100509.97
2023-06-21T06:27:07.499Z,100510.16
2023-06-21T06:29:45.521Z,100511.03
2023-06-21T06:32:12.290Z,100520.69
2023-06-21T06:34:38.921Z,100519.97
2023-06-21T06:37:14.589Z,100520.81
2023-06-21T06:39:42.744Z,100526.06
2023-06-21T06:42:11.356Z,100527.47
2023-06-21T06:44:40.971Z,100529.44
2023-06-21T06:47:09.676Z,100532.84
2023-06-21T06:49:38.737Z,100538.69
2023-06-21T06:52:05.750Z,100542.47
2023-06-21T06:54:32.553Z,100536.72
2023-06-21T06:57:01.702Z,100539.66
2023-06-21T06:59:31.193Z,100528.16
2023-06-21T07:01:57.890Z,100537.97
2023-06-21T07:04:29.430Z,100540.81
2023-06-21T07:07:05.400Z,100545.34
2023-06-21T07:09:34.338Z,100535.53
2023-06-21T07:12:02.726Z,100539.06
2023-06-21T07:14:29.396Z,100553.81
2023-06-21T07:16:56.048Z,100556.97
2023-06-21T07:19:22.730Z,100549.75
2023-06-21T07:21:51.026Z,100562.31
2023-06-21T07:24:17.754Z,100558.47
2023-06-21T07:26:44.381Z,100559.97
2023-06-21T07:29:11.217Z,100573.81
2023-06-21T07:31:37.963Z,100578.75
2023-06-21T07:34:09.625Z,100574.75
2023-06-21T07:36:39.980Z,100573.78
2023-06-21T07:39:11.122Z,100572.50
2023-06-21T07:41:40.798Z,100574.66
2023-06-21T07:44:07.386Z,100576.25
2023-06-21T07:46:34.165Z,100574.94
2023-06-21T07:49:00.804Z,100584.38
2023-06-21T07:51:27.465Z,100582.09
2023-06-21T07:53:54.060Z,100589.09
2023-06-21T07:56:20.740Z,100598.06
2023-06-21T07:58:50.623Z,100595.16
2023-06-21T08:01:17.298Z,100604.88
2023-06-21T08:03:43.953Z,100595.38
2023-06-21T08:06:10.682Z,100588.84
2023-06-21T08:08:37.284Z,100585.06
2023-06-21T08:11:06.480Z,100596.03
2023-06-21T08:13:33.229Z,100594.13
2023-06-21T08:15:59.870Z,100593.94
2023-06-21T08:18:26.470Z,100600.66
2023-06-21T08:20:56.950Z,100609.84
2023-06-21T08:23:23.637Z,100602.97
2023-06-21T08:25:50.783Z,100606.06
2023-06-21T08:28:20.634Z,100602.44
2023-06-21T08:30:47.301Z,100599.16
2023-06-21T08:33:16.727Z,100603.41
2023-06-21T08:35:43.391Z,100606.16
2023-06-21T08:40:47.069Z,100614.75
2023-06-21T08:43:16.801Z,100617.38
2023-06-21T08:45:44.255Z,100620.38
2023-06-21T08:48:10.905Z,100626.66
2023-06-21T08:50:38.520Z,100623.25
2023-06-21T08:53:12.914Z,100627.44
2023-06-21T08:55:42.091Z,100621.44
2023-06-21T08:58:13.582Z,100629.16
2023-06-21T09:00:47.412Z,100627.47
2023-06-21T09:03:19.581Z,100627.47
2023-06-21T09:05:50.261Z,100626.94
2023-06-21T09:08:22.959Z,100623.59
2023-06-21T09:10:50.303Z,100631.44
2023-06-21T09:13:21.072Z,100633.75
2023-06-21T09:15:50.143Z,100639.53
2023-06-21T09:18:16.980Z,100636.59
2023-06-21T09:20:51.013Z,100645.19
2023-06-21T09:23:17.885Z,100640.69
2023-06-21T09:25:46.179Z,100638.50
2023-06-21T09:28:19.204Z,100640.00
2023-06-21T09:30:46.371Z,100637.91
2023-06-21T09:33:13.551Z,100644.94
2023-06-21T09:35:40.720Z,100643.63
2023-06-21T09:38:20.467Z,100640.34
2023-06-21T09:40:47.133Z,100639.22
2023-06-21T09:43:16.157Z,100636.22
2023-06-21T09:45:42.961Z,100638.84
2023-06-21T09:48:14.989Z,100641.47
2023-06-21T09:50:45.375Z,100640.91
2023-06-21T09:53:14.903Z,100643.66
2023-06-21T09:55:44.694Z,100639.00
2023-06-21T09:58:15.423Z,100640.03
2023-06-21T10:00:44.116Z,100638.00
2023-06-21T10:03:10.985Z,100646.81
2023-06-21T10:05:56.004Z,100652.53
2023-06-21T10:08:35.984Z,100646.38
2023-06-21T10:11:05.227Z,100649.41
2023-06-21T10:13:33.764Z,100651.88
2023-06-21T10:16:01.673Z,100653.50
2023-06-21T10:18:28.745Z,100662.31
2023-06-21T10:21:09.102Z,100661.59
2023-06-21T10:23:40.642Z,100658.19
2023-06-21T10:26:07.931Z,100665.03
2023-06-21T10:28:38.980Z,100663.56
2023-06-21T10:31:05.827Z,100661.13
2023-06-21T10:33:34.236Z,100658.78
2023-06-21T10:36:01.636Z,100664.31
2023-06-21T10:38:37.533Z,100670.97
2023-06-21T10:41:08.229Z,100676.41
2023-06-21T10:43:35.728Z,100674.69
2023-06-21T10:46:04.787Z,100677.22
2023-06-21T10:48:40.924Z,100666.78
2023-06-21T10:51:10.412Z,100672.88
2023-06-21T10:53:43.781Z,100672.50
2023-06-21T10:56:14.104Z,100676.50
2023-06-21T10:58:42.763Z,100669.91
2023-06-21T11:01:10.916Z,100675.00
2023-06-21T11:03:41.715Z,100691.59
2023-06-21T11:06:23.910Z,100692.16
2023-06-21T11:08:50.962Z,100685.50
2023-06-21T11:11:33.964Z,100689.72
2023-06-21T11:14:10.025Z,100689.81
2023-06-21T11:16:43.433Z,100701.38
2023-06-21T11:19:12.290Z,100702.03
2023-06-21T11:21:45.780Z,100698.38
2023-06-21T11:24:25.344Z,100702.25
2023-06-21T11:26:53.238Z,100709.50
2023-06-21T11:29:20.469Z,100715.44
2023-06-21T11:31:50.239Z,100712.03
2023-06-21T11:34:28.043Z,100717.69
2023-06-21T11:36:54.793Z,100725.59
2023-06-21T11:39:21.424Z,100726.34
2023-06-21T11:41:48.418Z,100732.75
2023-06-21T11:44:16.274Z,100730.25
2023-06-21T11:46:46.686Z,100738.72
2023-06-21T11:49:13.707Z,100748.25
2023-06-21T11:52:03.716Z,100742.53
2023-06-21T11:54:32.373Z,100748.72
2023-06-21T11:57:01.763Z,100747.22
2023-06-21T11:59:28.547Z,100744.25
2023-06-21T12:01:55.183Z,100753.28
2023-06-21T12:04:26.493Z,100760.53
2023-06-21T12:06:54.488Z,100756.13
2023-06-21T12:09:21.216Z,100759.06
2023-06-21T12:11:51.902Z,100763.31
2023-06-21T12:14:20.258Z,100761.13
2023-06-21T12:16:50.135Z,100760.59
2023-06-21T12:19:16.894Z,100769.03
2023-06-21T12:21:46.315Z,100763.06
2023-06-21T12:24:13.315Z,100754.16
2023-06-21T12:26:50.929Z,100753.91
2023-06-21T12:29:17.644Z,100767.84
2023-06-21T12:31:44.764Z,100766.19
2023-06-21T12:34:19.172Z,100765.72
2023-06-21T12:36:48.899Z,100775.88
2023-06-21T12:39:16.151Z,100766.53
2023-06-21T12:41:45.833Z,100770.38
2023-06-21T12:44:23.259Z,100768.41
2023-06-21T12:46:51.429Z,100777.59
2023-06-21T12:49:19.105Z,100767.69
2023-06-21T12:51:50.062Z,100759.78
2023-06-21T12:54:23.242Z,100770.34
2023-06-21T12:56:53.703Z,100770.16
2023-06-21T12:59:22.583Z,100762.16
2023-06-21T13:01:51.419Z,100766.84
2023-06-21T13:04:19.263Z,100770.50
2023-06-21T13:06:46.140Z,100768.94
2023-06-21T13:09:15.939Z,100768.16
2023-06-21T13:11:42.793Z,100763.84
2023-06-21T13:14:11.781Z,100761.22
2023-06-21T13:16:47.636Z,100763.50
2023-06-21T13:19:14.278Z,100763.13
2023-06-21T13:21:40.904Z,100773.25
2023-06-21T13:24:07.703Z,100766.22
2023-06-21T13:26:34.345Z,100764.53
2023-06-21T13:29:01.112Z,100764.06
2023-06-21T13:31:30.249Z,100758.81
2023-06-21T13:34:04.538Z,100762.06
2023-06-21T13:36:31.333Z,100765.66
2023-06-21T13:38:57.973Z,100768.47
2023-06-21T13:41:24.703Z,100754.47
2023-06-21T13:43:54.794Z,100755.00
2023-06-21T13:46:21.743Z,100756.97
2023-06-21T13:48:48.520Z,100749.50
2023-06-21T13:51:15.275Z,100743.03
2023-06-21T13:53:45.637Z,100747.72
2023-06-21T13:56:12.482Z,100744.50
2023-06-21T13:58:40.290Z,100750.59
2023-06-21T14:01:08.332Z,100750.19
2023-06-21T14:03:35.161Z,100752.63
2023-06-21T14:06:10.029Z,100753.47
2023-06-21T14:08:36.669Z,100746.16
2023-06-21T14:11:03.287Z,100750.44
2023-06-21T14:13:30.012Z,100752.25
2023-06-21T14:15:56.787Z,100749.88
2023-06-21T14:18:30.762Z,100754.50
2023-06-21T14:21:09.488Z,100753.03
2023-06-21T14:23:36.404Z,100747.97
2023-06-21T14:26:03.174Z,100738.00
2023-06-21T14:28:34.894Z,100745.22
2023-06-21T14:31:01.780Z,100741.34
2023-06-21T14:33:28.609Z,100730.28
2023-06-21T14:35:55.382Z,100735.41
2023-06-21T14:38:25.007Z,100736.38
2023-06-21T14:40:51.885Z,100737.72
2023-06-21T14:43:19.758Z,100737.41
2023-06-21T14:45:46.456Z,100740.84
2023-06-21T14:48:14.891Z,100753.38
2023-06-21T14:50:41.960Z,100747.19
2023-06-21T14:53:08.737Z,100753.81
2023-06-21T14:55:35.461Z,100757.22
2023-06-21T14:58:02.101Z,100760.38
2023-06-21T15:00:29.056Z,100768.25
2023-06-21T15:02:56.311Z,100768.25
2023-06-21T15:05:23.122Z,100768.34
2023-06-21T15:07:52.172Z,100766.88
2023-06-21T15:10:18.928Z,100764.63
2023-06-21T15:12:59.917Z,100764.66
2023-06-21T15:15:31.309Z,100759.44
2023-06-21T15:17:58.846Z,100755.63
2023-06-21T15:20:25.513Z,100759.63
2023-06-21T15:22:52.290Z,100763.78
2023-06-21T15:25:19.111Z,100763.69
2023-06-21T15:27:50.096Z,100765.66
2023-06-21T15:30:16.943Z,100764.84
2023-06-21T15:32:44.054Z,100765.91
2023-06-21T15:35:12.044Z,100762.09
2023-06-21T15:37:40.145Z,100763.69
2023-06-21T15:40:09.757Z,100773.91
2023-06-21T15:42:39.898Z,100766.03
2023-06-21T15:45:07.016Z,100769.72
2023-06-21T15:47:36.618Z,100771.44
2023-06-21T15:50:07.568Z,100778.13
2023-06-21T15:52:38.717Z,100768.59
2023-06-21T15:55:05.945Z,100763.38
2023-06-21T15:57:38.942Z,100762.38
2023-06-21T16:00:06.952Z,100766.78
2023-06-21T16:02:42.511Z,100765.75
2023-06-21T16:05:09.381Z,100764.13
2023-06-21T16:07:35.997Z,100752.66
2023-06-21T16:10:02.715Z,100749.38
2023-06-21T16:12:29.861Z,100758.63
2023-06-21T16:14:56.829Z,100766.69
2023-06-21T16:17:23.632Z,100759.81
2023-06-21T16:19:50.380Z,100759.03
2023-06-21T16:22:17.036Z,100753.44
2023-06-21T16:24:44.257Z,100754.94
2023-06-21T16:27:10.893Z,100756.88
2023-06-21T16:29:37.610Z,100757.94
2023-06-21T16:32:04.487Z,100758.88
2023-06-21T16:34:31.325Z,100766.38
2023-06-21T16:36:59.018Z,100764.16
2023-06-21T16:39:25.665Z,100763.03
2023-06-21T16:41:52.285Z,100761.91
2023-06-21T16:44:19.801Z,100765.94
2023-06-21T16:46:46.402Z,100771.66
2023-06-21T16:49:26.675Z,100778.53
2023-06-21T16:51:54.038Z,100777.41
2023-06-21T16:54:20.687Z,100777.53
2023-06-21T16:56:49.529Z,100773.75
2023-06-21T16:59:16.260Z,100779.31
2023-06-21T17:01:43.410Z,100786.00
2023-06-21T17:04:11.153Z,100784.09
2023-06-21T17:06:43.566Z,100791.25
2023-06-21T17:09:10.370Z,100797.53
2023-06-21T17:11:37.020Z,100804.31
2023-06-21T17:14:04.403Z,100802.13
2023-06-21T17:16:31.438Z,100808.84
2023-06-21T17:18:58.737Z,100808.97
2023-06-21T17:21:25.721Z,100811.88
2023-06-21T17:23:55.266Z,100819.81
2023-06-21T17:26:29.241Z,100816.16
2023-06-21T17:28:57.066Z,100818.06
2023-06-21T17:31:23.791Z,100821.50
2023-06-21T17:33:50.538Z,100823.56
2023-06-21T17:36:17.153Z,100824.56
2023-06-21T17:38:43.841Z,100821.22
2023-06-21T17:41:10.482Z,100831.22
2023-06-21T17:43:37.144Z,100830.72
2023-06-21T17:46:06.644Z,100830.44
2023-06-21T17:48:33.332Z,100837.59
2023-06-21T17:51:00.052Z,100838.97
2023-06-21T17:53:26.819Z,100837.50
2023-06-21T17:55:53.440Z,100839.69
2023-06-21T17:58:23.124Z,100835.13
2023-06-21T18:00:49.901Z,100839.28
2023-06-21T18:03:16.654Z,100838.94
2023-06-21T18:05:43.393Z,100839.63
2023-06-21T18:08:10.053Z,100840.31
2023-06-21T18:10:36.692Z,100826.22
2023-06-21T18:13:06.036Z,100838.63
2023-06-21T18:15:32.983Z,100838.97
2023-06-21T18:17:59.759Z,100846.50
2023-06-21T18:20:33.892Z,100841.19
2023-06-21T18:23:00.568Z,100842.88
2023-06-21T18:25:27.509Z,100833.56
2023-06-21T18:27:57.460Z,100831.53
2023-06-21T18:30:31.774Z,100840.53
2023-06-21T18:33:04.748Z,100844.94
2023-06-21T18:35:31.482Z,100847.16
2023-06-21T18:38:00.187Z,100856.69
2023-06-21T18:40:27.051Z,100856.34
2023-06-21T18:42:53.819Z,100859.06
2023-06-21T18:45:22.887Z,100853.28
2023-06-21T18:47:51.750Z,100851.25
2023-06-21T18:50:18.765Z,100851.00
2023-06-21T18:52:45.417Z,100863.41
2023-06-21T18:55:12.832Z,100856.72
2023-06-21T18:57:39.430Z,100866.03
2023-06-21T19:00:06.326Z,100865.19
2023-06-21T19:02:33.753Z,100873.75
2023-06-21T19:05:00.721Z,100863.91
2023-06-21T19:07:33.274Z,100866.91
2023-06-21T19:10:03.355Z,100870.66
2023-06-21T19:12:33.290Z,100868.75
2023-06-21T19:15:02.824Z,100871.53
2023-06-21T19:17:33.254Z,100878.66
2023-06-21T19:20:00.227Z,100882.19
2023-06-21T19:22:33.640Z,100876.50
2023-06-21T19:25:01.118Z,100882.97
2023-06-21T19:27:27.913Z,100878.25
2023-06-21T19:29:55.778Z,100889.31
2023-06-21T19:32:22.418Z,100886.84
2023-06-21T19:34:49.996Z,100897.06
2023-06-21T19:37:18.808Z,100899.06
2023-06-21T19:39:48.056Z,100905.09
2023-06-21T19:42:14.664Z,100903.16
2023-06-21T19:44:42.035Z,100899.63
2023-06-21T19:47:10.695Z,100912.19
2023-06-21T19:49:38.105Z,100916.88
2023-06-21T19:52:08.175Z,100923.84
2023-06-21T19:54:34.951Z,100920.81
2023-06-21T19:57:01.584Z,100918.22
2023-06-21T19:59:28.608Z,100928.16
2023-06-21T20:01:55.261Z,100926.13
2023-06-21T20:04:21.994Z,100931.63
2023-06-21T20:06:48.814Z,100929.44
2023-06-21T20:09:15.685Z,100929.16
2023-06-21T20:11:42.343Z,100927.75
2023-06-21T20:14:09.066Z,100932.97
2023-06-21T20:16:35.660Z,100923.63
2023-06-21T20:19:02.591Z,100926.19
2023-06-21T20:21:29.386Z,100935.88
2023-06-21T20:23:56.059Z,100936.44
2023-06-21T20:26:22.749Z,100928.03
2023-06-21T20:28:50.885Z,100924.53
2023-06-21T20:31:17.699Z,100917.97
2023-06-21T20:33:44.486Z,100916.53
2023-06-21T20:36:11.789Z,100918.94
2023-06-21T20:38:38.525Z,100909.13
2023-06-21T20:43:46.593Z,100911.69
2023-06-21T20:46:15.554Z,100918.25
2023-06-21T20:48:42.609Z,100910.84
2023-06-21T20:51:09.226Z,100907.69
2023-06-21T20:53:35.843Z,100919.59
2023-06-21T20:56:02.700Z,100928.94
2023-06-21T20:58:29.647Z,100927.25
2023-06-21T21:00:57.077Z,100915.97
2023-06-21T21:03:23.715Z,100924.72
2023-06-21T21:05:50.549Z,100914.50
2023-06-21T21:08:17.197Z,100916.66
2023-06-21T21:10:43.965Z,100912.16
2023-06-21T21:13:10.582Z,100921.59
2023-06-21T21:15:37.231Z,100928.16
2023-06-21T21:18:04.141Z,100940.31
2023-06-21T21:20:31.004Z,100937.16
2023-06-21T21:22:57.690Z,100931.78
2023-06-21T21:25:25.316Z,100935.91
2023-06-21T21:27:51.849Z,100926.19
2023-06-21T21:30:18.701Z,100932.25
2023-06-21T21:32:45.402Z,100934.66
2023-06-21T21:35:12.178Z,100938.41
2023-06-21T21:37:38.797Z,100947.81
2023-06-21T21:40:06.918Z,100949.19
2023-06-21T21:42:33.541Z,100958.06
2023-06-21T21:45:00.166Z,100957.16
2023-06-21T21:47:27.094Z,100963.31
2023-06-21T21:49:54.273Z,100969.13
2023-06-21T21:52:20.911Z,100968.41
2023-06-21T21:54:47.564Z,100963.06
2023-06-21T21:57:14.097Z,100963.28
2023-06-21T21:59:40.795Z,100970.16
2023-06-21T22:02:22.231Z,100970.13
2023-06-21T22:05:04.857Z,100970.50
2023-06-21T22:07:32.258Z,100983.59
2023-06-21T22:10:17.923Z,100976.22
2023-06-21T22:12:54.670Z,100978.84
2023-06-21T22:15:31.375Z,100984.09
2023-06-21T22:21:10.795Z,100988.22
2023-06-21T22:27:30.823Z,101004.63
2023-06-21T22:33:11.863Z,100990.72
2023-06-21T22:36:04.868Z,100987.59
2023-06-21T22:38:31.636Z,100983.94
2023-06-21T22:40:58.405Z,100986.50
2023-06-21T22:43:25.242Z,100994.75
2023-06-21T22:45:56.686Z,100996.84
2023-06-21T22:48:25.474Z,101000.31
2023-06-21T22:50:59.086Z,101003.69
2023-06-21T22:53:25.759Z,100995.44
2023-06-21T22:55:59.791Z,100996.41
2023-06-21T22:58:32.297Z,101001.66
2023-06-21T23:00:59.023Z,100998.72
2023-06-21T23:03:27.445Z,101005.34
2023-06-21T23:05:57.299Z,101013.88
2023-06-21T23:08:26.935Z,101026.41
2023-06-21T23:10:53.585Z,101022.41
2023-06-21T23:13:23.241Z,101016.88
2023-06-21T23:15:50.058Z,101005.72
2023-06-21T23:18:16.693Z,101011.06
2023-06-21T23:20:43.429Z,101010.00
2023-06-21T23:23:16.002Z,101007.78
2023-06-21T23:25:43.376Z,101012.19
2023-06-21T23:28:10.057Z,101006.38
2023-06-21T23:30:36.997Z,101008.59
2023-06-21T23:33:12.028Z,101007.00
2023-06-21T23:35:41.689Z,101014.41
2023-06-21T23:38:08.389Z,101008.56
2023-06-21T23:40:37.427Z,101009.88
2023-06-21T23:43:04.706Z,101008.75
2023-06-21T23:45:40.392Z,101009.91
2023-06-21T23:48:07.810Z,101015.91
2023-06-21T23:50:37.104Z,101011.84
2023-06-21T23:53:03.733Z,101008.19
2023-06-21T23:55:30.333Z,101010.66
2023-06-21T23:58:00.606Z,101010.88
